Main page
METAR-TAF:

METAR-TAF

Airports :

Cerklje ob Krki Airport

Cerklje ob Krki, Slovenia

latitude: 45-53-59N, longitude: 15-30-55E, elevation: 157 m

Current weather observation

The report was made 30 minutes ago, at 06:30 UTC
Wind 2 kt from the East/Northeast
Temperature 2°C
Humidity 100%
Pressure 1019 hPa
Visibility: 0400 m
fog

METAR: LJCE 270630Z 07002KT 0400 FG VV002 02/02 Q1019 RMK RED

Time: 08:00 (07:00 UTC)

Forecast

The report was made 26 minutes ago, at 06:34 UTC
Forecast valid from 27 at 06 UTC to 27 at 15 UTC
Wind 4 kt from the East/Northeast
Visibility: 0500 m
at a height of 200 ft
fog
Temporary
from 27 at 06 UTC to 27 at 09 UTC
Visibility: 2500 m
Overcast at a height of 300 ft
mist
Becoming
from 27 at 09 UTC to 27 at 12 UTC
Visibility: 3500 m
Overcast at a height of 400 ft
mist

TAF: LJCE 270634Z 2706/2715 07004KT 0500 FG VV002 TEMPO 2706/2709 2500 BR OVC003 BECMG 2709/2712 3500 BR OVC004

Weather observations and forecasts of more than 4000 airports (METAR and TAF reports).

The available stations are represented by yellow and red dots on the map.

Hover mouse over dot to see the name of the station.

Then click to see weather observations and forecasts.

To change the map : click on the green buttons with a black cross to zoom in, on the green button with a dash to zoom out, or on the green arrows for adjacent maps.


METAR-TAF: